Palm Springs International Airport
KPSP : rendu visible

Aérodrome :











RETROUVEZ-NOUS SUR...

 
LOGIN :

S'inscrire | Disclaimer

   EN    FR    IT 

 









Légende :    VFR   VFR Marginal   IFR   IFR Intensif   IFR Très Intensif
Visi : 
Plafond : 
>= 8 km
>= 3000ft
5 à 8 km
1000 à 3000 ft
1500m à 5 km
500 à 1000 ft
800 à 1500m
200 à 500 ft
< 800m
< 200 ft
Symboles :   Orages  Brouillard  Fortes neiges  Fortes précipitations  Vent > 20 kt






- Altitude de l'aérodrome : 477 ft
- Code IATA : PSP


KPSP - Palm Springs International

DERNIER METAR :
  • 190753Z AUTO 32003KT 10SM CLR 12/M06 A3023 RMK AO2 SLP236 T01171061 402280067 $

METARs EXPIRÉS :
  • 190653Z AUTO 25006KT 10SM CLR 14/M05 A3022 RMK AO2 SLP234 T01391050 $
  • 190553Z 31004KT 10SM CLR 13/M04 A3023 RMK AO2 SLP236 T01281044 10217 20128 53001 $

TAF KPSP
Valide du 19 à 06h jusqu'au 20 à 06h UTC


190526Z 1906/2006 VRB05KT P6SM SCT250



MET'MAP, la Météo Aéronautique d'un coup d'oeil ! - Copyright ORBIFLY Décembre 2007 - Disclaimer

ORBIFLY MET'MAP TEAM :

Programmation & Développement : Alexandra Zaïnal
Sur une idée originale de : Baudouin d'Aumeries
Assistance à la programmation : Marc-Olivier Méhu
Soutien technique & logistique : Manuel Goepfert

Contact : metmap@orbifly.com




SOURCES & CREDITS :

   NOAA       Earth
Advisory